Flight Track Log - Related Links

Times and Time Zones

All times are in EDT time to prevent confusion due to time zone crossing. See the UAL5915 flight status page for this flight to view local times or setup timezone preferences in your user account.

Time Position Orientation Groundspeed Altitude Reporting Facility
EDT Latitude Longitude Course Direction KTS MPH feet Rate Location/Type
Tue 01:38:42 PM 36.1956 -95.8686 98° East 170 196 1,200  Level Kansas City Center
Tue 01:40:01 PM 36.1858 -95.7792 98° East 230 265 3,600 1,787 Climbing Kansas City Center
Tue 01:40:16 PM 36.1828 -95.7619 102° East 217 250 4,000 2,291 Climbing Kansas City Center
Tue 01:40:56 PM 36.1683 -95.6986 106° East 284 327 5,700 2,344 Climbing Kansas City Center
Tue 01:41:20 PM 36.1647 -95.6703 99° East 259 298 6,500 2,400 Climbing Kansas City Center
Tue 01:41:56 PM 36.1494 -95.6028 106° East 290 334 8,100 2,262 Climbing Kansas City Center
Tue 01:42:21 PM 36.1442 -95.5753 103° East 281 323 8,800 2,090 Climbing Kansas City Center
Tue 01:43:25 PM 36.1189 -95.4569 105° East 294 338 11,200 1,536 Climbing Kansas City Center
Tue 01:44:26 PM 36.0956 -95.3428 104° East 334 384 12,000 1,113 Climbing Kansas City Center
Tue 01:45:29 PM 36.0675 -95.2164 105° East 373 429 13,500 1,463 Climbing Kansas City Center
Tue 01:46:29 PM 36.0406 -95.0858 104° East 391 450 15,000 1,403 Climbing Kansas City Center
Tue 01:47:33 PM 36.0219 -94.9475 99° East 407 468 16,400 1,296 Climbing Kansas City Center
Tue 01:48:34 PM 36.0281 -94.8042 87° East 418 481 17,700 1,397 Climbing Kansas City Center
Tue 01:49:29 PM 36.0325 -94.6536 88° East 417 480 19,100 1,670 Climbing Memphis Center
Tue 01:50:29 PM 36.0394 -94.5103 87° East 422 486 20,900 1,800 Climbing Memphis Center
Tue 01:51:29 PM 36.0442 -94.3642 88° East 422 486 22,700 1,550 Climbing Memphis Center
Tue 01:52:29 PM 36.0489 -94.2206 88° East 422 486 24,000 1,400 Climbing Memphis Center
Tue 01:53:29 PM 36.0533 -94.0744 88° East 422 486 25,500 1,600 Climbing Memphis Center
Tue 01:54:29 PM 36.0556 -93.9258 89° East 427 491 27,200 1,550 Climbing Memphis Center
Tue 01:55:29 PM 36.0594 -93.7872 88° East 410 472 28,600 1,400 Climbing Memphis Center
Tue 01:56:29 PM 36.0653 -93.6489 87° East 405 466 30,000 1,350 Climbing Memphis Center
Tue 01:57:29 PM 36.0667 -93.5078 89° East 405 466 31,300 1,250 Climbing Memphis Center
Tue 01:58:29 PM 36.0722 -93.3692 87° East 405 466 32,500 1,150 Climbing Memphis Center
Tue 01:59:29 PM 36.0756 -93.2281 88° East 405 466 33,600 1,050 Climbing Memphis Center
Tue 02:00:29 PM 36.0789 -93.0869 88° East 405 466 34,600 850 Climbing Memphis Center
Tue 02:01:29 PM 36.0839 -92.9458 87° East 400 460 35,300 650 Climbing Memphis Center
Tue 02:02:29 PM 36.0867 -92.8047 89° East 410 472 35,900 550 Climbing Memphis Center
Tue 02:03:29 PM 36.0894 -92.6636 89° East 410 472 36,400 550 Climbing Memphis Center
Tue 02:04:29 PM 36.0900 -92.5172 90° East 415 478 37,000 300 Climbing Memphis Center
Tue 02:05:29 PM 36.0944 -92.3683 88° East 422 486 37,000  Level Memphis Center
Tue 02:06:29 PM 36.0969 -92.2142 89° East 428 493 37,000  Level Memphis Center
Tue 02:07:29 PM 36.0972 -92.0447 90° East 446 513 37,000  Level Memphis Center
Tue 02:08:29 PM 36.0994 -91.8778 89° East 456 525 37,000  Level Memphis Center
Tue 02:09:29 PM 36.1033 -91.7056 88° East 477 549 37,000  Level Memphis Center
Tue 02:10:29 PM 36.1053 -91.5336 89° East 487 560 37,000  Level Memphis Center
Tue 02:11:29 PM 36.1047 -91.3564 90° East 498 573 37,000  Level Memphis Center
Tue 02:12:29 PM 36.1081 -91.1792 89° East 508 585 37,000  Level Memphis Center
Tue 02:13:29 PM 36.1069 -91.0044 90° East 508 585 37,000  Level Memphis Center
Tue 02:14:29 PM 36.1097 -90.8272 89° East 513 590 37,000  Level Memphis Center
Tue 02:15:29 PM 36.1144 -90.6550 88° East 513 590 37,000  Level Memphis Center
Tue 02:16:29 PM 36.1169 -90.4803 89° East 513 590 37,000  Level Memphis Center
Tue 02:17:29 PM 36.1211 -90.3081 88° East 513 590 37,000  Level Memphis Center
Tue 02:18:29 PM 36.1250 -90.1308 88° East 513 590 37,000  Level Memphis Center
Tue 02:19:29 PM 36.1267 -89.9561 89° East 513 590 37,000  Level Memphis Center
Tue 02:20:29 PM 36.1281 -89.7839 89° East 513 590 37,000  Level Memphis Center
Tue 02:21:29 PM 36.1292 -89.6092 89° East 513 590 37,000  Level Memphis Center
Tue 02:22:29 PM 36.1322 -89.4344 89° East 508 585 37,000  Level Memphis Center
Tue 02:23:29 PM 36.1411 -89.2622 86° East 508 585 37,000  Level Memphis Center
Tue 02:24:29 PM 36.1875 -89.0942 71° East 508 585 37,000  Level Memphis Center
Tue 02:25:29 PM 36.2442 -88.9339 66° East 502 578 37,000  Level Memphis Center
Tue 02:26:29 PM 36.2986 -88.7733 67° East 502 578 37,000  Level Memphis Center
Tue 02:27:29 PM 36.3528 -88.6175 67° East 497 572 37,000  Level Memphis Center
Tue 02:28:29 PM 36.4067 -88.4514 68° East 502 578 37,000  Level Memphis Center
Tue 02:29:29 PM 36.4603 -88.2903 67° East 502 578 37,000  Level Memphis Center
Tue 02:30:29 PM 36.5139 -88.1314 67° East 497 572 37,000  Level Memphis Center
Tue 02:31:29 PM 36.5569 -87.9906 69° East 497 572 37,000  Level Memphis Center
Tue 02:32:29 PM 36.6081 -87.8289 68° East 497 572 37,000  Level Memphis Center
Tue 02:33:29 PM 36.6647 -87.6539 68° East 497 572 37,000  Level Memphis Center
Tue 02:34:29 PM 36.7153 -87.4917 69° East 497 572 37,000  Level Memphis Center
Tue 02:35:29 PM 36.7678 -87.3292 68° East 497 572 37,000  Level Memphis Center
Tue 02:36:29 PM 36.8178 -87.1667 69° East 497 572 37,000  Level Memphis Center
Tue 02:37:29 PM 36.8697 -87.0039 68° East 502 578 37,000  Level Memphis Center
Tue 02:38:29 PM 36.9194 -86.8408 69° East 502 578 37,000  Level Memphis Center
Tue 02:39:29 PM 36.9708 -86.6750 69° East 502 578 37,000  Level Memphis Center
Tue 02:40:29 PM 37.0167 -86.5300 68° East 496 571 37,000  Level Memphis Center
Tue 02:41:29 PM 37.0656 -86.3664 69° East 501 577 37,000  Level Memphis Center
Tue 02:42:54 PM 37.1389 -86.1194 70° East 506 582 37,000  Level Indianapolis Center
Tue 02:43:56 PM 37.1892 -85.9514 69° East 509 586 37,000  Level Indianapolis Center
Tue 02:44:58 PM 37.2397 -85.7853 69° East 506 582 37,000  Level Indianapolis Center
Tue 02:45:59 PM 37.2883 -85.6172 70° East 507 583 37,000  Level Indianapolis Center
Tue 02:47:01 PM 37.3431 -85.4353 69° East 503 579 37,000  Level Indianapolis Center
Tue 02:48:03 PM 37.3922 -85.2692 70° East 507 583 37,000  Level Indianapolis Center
Tue 02:49:05 PM 37.4389 -85.1028 71° East 504 580 37,000  Level Indianapolis Center
Tue 02:50:07 PM 37.4892 -84.9356 69° East 509 586 37,000  Level Indianapolis Center
Tue 02:51:09 PM 37.5358 -84.7694 70° East 505 581 37,000  Level Indianapolis Center
Tue 02:52:10 PM 37.5828 -84.6025 70° East 506 582 37,000  Level Indianapolis Center
Tue 02:53:12 PM 37.6386 -84.4094 70° East 501 577 37,000  Level Indianapolis Center
Tue 02:54:14 PM 37.6844 -84.2475 70° East 490 564 37,000  Level Indianapolis Center
Tue 02:55:16 PM 37.7289 -84.0883 71° East 483 556 37,000  Level Indianapolis Center
Tue 02:56:18 PM 37.7733 -83.9294 70° East 479 551 37,000  Level Indianapolis Center
Tue 02:57:19 PM 37.8181 -83.7664 71° East 491 565 37,000  Level Indianapolis Center
Tue 02:58:21 PM 37.8656 -83.5992 70° East 499 574 37,000  Level Indianapolis Center
Tue 02:59:23 PM 37.9086 -83.4331 72° East 497 572 37,000  Level Indianapolis Center
Tue 03:00:25 PM 37.9625 -83.2397 70° East 496 571 37,000  Level Indianapolis Center
Tue 03:01:27 PM 38.0078 -83.0731 71° East 495 570 37,000  Level Indianapolis Center
Tue 03:02:29 PM 38.0567 -82.9097 69° East 493 567 37,000  Level Indianapolis Center
Tue 03:03:30 PM 38.1347 -82.7706 54° Northeast 483 556 37,000  Level Indianapolis Center
Tue 03:04:32 PM 38.1803 -82.6089 70° East 484 557 37,000  Level Indianapolis Center
Tue 03:05:34 PM 38.2136 -82.4439 76° East 483 556 37,000  Level Indianapolis Center
Tue 03:06:36 PM 38.2475 -82.2789 75° East 483 556 37,000 -145 Level Indianapolis Center
Tue 03:07:38 PM 38.2817 -82.1161 75° East 479 551 36,700 -435 Descending Indianapolis Center
Tue 03:08:40 PM 38.3203 -81.9164 76° East 487 560 36,100 -581 Descending Indianapolis Center
Tue 03:09:42 PM 38.3481 -81.7550 78° East 476 548 35,500 -537 Descending Indianapolis Center
Tue 03:10:43 PM 38.3442 -81.5878 92° East 476 548 35,000 -244 Descending Indianapolis Center
Tue 03:11:45 PM 38.3383 -81.4214 93° East 475 547 35,000  Level Indianapolis Center
Tue 03:12:47 PM 38.3328 -81.2528 92° East 480 552 35,000 -387 Level Indianapolis Center
Tue 03:13:49 PM 38.3256 -81.0508 93° East 480 552 34,200 -871 Descending Indianapolis Center
Tue 03:14:51 PM 38.3194 -80.8850 93° East 473 544 33,200 -558 Descending Indianapolis Center
Tue 03:15:58 PM 38.3119 -80.7150 93° East 472 543 33,000 -94 Descending Washington Center
Tue 03:16:58 PM 38.3067 -80.5481 92° East 472 543 33,000  Level Washington Center
Tue 03:17:58 PM 38.3175 -80.3792 85° East 472 543 33,000  Level Washington Center
Tue 03:18:58 PM 38.3519 -80.1961 76° East 477 549 33,000  Level Washington Center
Tue 03:19:58 PM 38.3869 -80.0367 74° East 477 549 33,000 -200 Level Washington Center
Tue 03:20:58 PM 38.4219 -79.8772 74° East 471 542 32,600 -1,250 Descending Washington Center
Tue 03:21:58 PM 38.4611 -79.7122 73° East 471 542 30,500 -2,850 Descending Washington Center
Tue 03:22:58 PM 38.4981 -79.5497 74° East 471 542 26,900 -3,600 Descending Washington Center
Tue 03:23:58 PM 38.5297 -79.4108 74° East 466 536 23,300 -1,950 Descending Washington Center
Tue 03:24:58 PM 38.5550 -79.2636 78° East 441 507 23,000 -600 Descending Washington Center
Tue 03:25:58 PM 38.5789 -79.0972 80° East 436 502 22,100 -1,550 Descending Washington Center
Tue 03:26:58 PM 38.6061 -78.9472 77° East 420 483 19,900 -2,150 Descending Washington Center
Tue 03:27:58 PM 38.6286 -78.8100 78° East 407 468 17,800 -2,150 Descending Washington Center
Tue 03:28:58 PM 38.6592 -78.6783 73° East 392 451 15,600 -2,000 Descending Washington Center
Tue 03:29:58 PM 38.6917 -78.5467 72° East 380 437 13,800 -1,900 Descending Washington Center
Tue 03:30:58 PM 38.7194 -78.4333 73° East 348 400 11,800 -1,900 Descending Washington Center
Tue 03:31:58 PM 38.7633 -78.3367 60° Northeast 311 358 10,000 -1,400 Descending Washington Center
Tue 03:32:58 PM 38.8086 -78.2717 48° Northeast 306 352 9,000 -550 Descending Washington Center
Tue 03:33:58 PM 38.8650 -78.1644 56° Northeast 306 352 8,900 -500 Descending Washington Center
Tue 03:34:58 PM 38.8878 -78.0744 72° East 292 336 8,000 -1,050 Descending Washington Center
Tue 03:35:58 PM 38.9172 -77.9633 71° East 292 336 6,800 -1,000 Descending Washington Center
Tue 03:36:58 PM 38.9375 -77.8761 73° East 286 329 6,000 -400 Descending Washington Center
Tue 03:37:58 PM 38.9622 -77.7808 72° East 265 305 6,000  Level Washington Center
Tue 03:38:58 PM 38.9594 -77.7006 93° East 254 292 6,000  Level Washington Center
Tue 03:39:52 PM 38.9667 -77.6167 84° East 259 298 6,000 -56 Level Potomac TRACON
Tue 03:40:46 PM 39.0333 -77.5667 30° Northeast 253 291 5,900 -53 Descending Potomac TRACON
Tue 03:41:46 PM 39.0833 -77.5667 360° North 208 239 5,900 -450 Level Potomac TRACON
Tue 03:42:46 PM 39.1500 -77.5667 360° North 210 242 5,000 -952 Descending Potomac TRACON
Tue 03:43:52 PM 39.1833 -77.5333 38° Northeast 207 238 3,900 -950 Descending Potomac TRACON
Tue 03:44:46 PM 39.1667 -77.4833 113° Southeast 179 206 3,100 -526 Descending Potomac TRACON
Tue 03:45:46 PM 39.1167 -77.4667 165° South 164 189 2,900 -350 Descending Potomac TRACON
Tue 03:46:46 PM 39.0833 -77.4667 180° South 164 189 2,400 -700 Descending Potomac TRACON
Tue 03:47:46 PM 39.0333 -77.4667 180° South 158 182 1,500 -783 Descending Potomac TRACON
Tue 03:48:41 PM 39.0000 -77.4667 180° South 136 157 900 -655 Descending Potomac TRACON

Login

Don't have an account? Register now (free) for customized features, flight alerts, and more!